Roanoke Regional Woodrum Field Roanoke US
ICAO: KROA
IATA: ROA
Category: Large
Scheduled Services: Yes

Elevation: 1175 ft
TransAlt. 18000 ft.

Airport Communications:
APP/DEP:118.15
ATIS:134.95
CLNC DEL:119.7
GND:121.9
LEESBURG RDO:122.2
TWR:118.3
UNICOM:122.95

KROA Zoom In..

If you have problems with the map follow the link
https://www.worldairports.se/pages/airport.php?
ICAO=KROA

Runways:

(A) RW 06 length 6800 ft width 150 ft
---- / hdg 57

(B) RW 16 length 5810 ft width 150 ft
---- / hdg 156

(C) RW 24 length 6800 ft width 150 ft
---- / hdg 237

(D) RW 34 length 5810 ft width 150 ft
ILS 109.70 / hdg 336

Location; KROA
Day. 17 / Time. 20.54 Zulu
* Altimeter: 30.64
* Temperature: 04° c. 39.2°f.
* Wind from: 160° Speed 05 kn.
Dewpoint: -12° c.
Visibility: 10 Statute Miles.
Clouds: Clear (automated report).

KROA 172054Z 16005KT 10SM CLR 04/M12 A3064 RMK AO2 SLP383 T00441122 56014


Wind From 160°
Speed 05 kn.

 
 
jpsmedia worldairports.se 2020   terms of use